sensor_id;sensor_type;location;lat;lon;timestamp;P1;durP1;ratioP1;P2;durP2;ratioP2
57029;SDS011;42920;45.306;20.448;2023-03-17T00:01:44;7.68;;;3.38;;
57029;SDS011;42920;45.306;20.448;2023-03-17T00:04:15;9.45;;;4.75;;
57029;SDS011;42920;45.306;20.448;2023-03-17T00:06:41;9.02;;;4.50;;
57029;SDS011;42920;45.306;20.448;2023-03-17T00:11:38;11.18;;;4.25;;
57029;SDS011;42920;45.306;20.448;2023-03-17T00:14:05;13.57;;;5.82;;
57029;SDS011;42920;45.306;20.448;2023-03-17T00:18:58;11.65;;;5.32;;
57029;SDS011;42920;45.306;20.448;2023-03-17T00:23:52;16.73;;;6.45;;
57029;SDS011;42920;45.306;20.448;2023-03-17T00:28:44;14.05;;;6.15;;
57029;SDS011;42920;45.306;20.448;2023-03-17T00:33:46;16.55;;;6.05;;
57029;SDS011;42920;45.306;20.448;2023-03-17T00:36:23;11.38;;;5.18;;
57029;SDS011;42920;45.306;20.448;2023-03-17T00:38:54;12.93;;;5.88;;
57029;SDS011;42920;45.306;20.448;2023-03-17T00:41:21;11.50;;;5.30;;
57029;SDS011;42920;45.306;20.448;2023-03-17T00:43:47;18.52;;;5.60;;
57029;SDS011;42920;45.306;20.448;2023-03-17T00:48:48;13.25;;;4.95;;
57029;SDS011;42920;45.306;20.448;2023-03-17T00:53:40;16.77;;;6.00;;
57029;SDS011;42920;45.306;20.448;2023-03-17T00:56:11;11.70;;;5.57;;
57029;SDS011;42920;45.306;20.448;2023-03-17T00:58:42;12.82;;;5.93;;
57029;SDS011;42920;45.306;20.448;2023-03-17T01:01:09;18.33;;;6.65;;
57029;SDS011;42920;45.306;20.448;2023-03-17T01:03:35;17.08;;;6.70;;
57029;SDS011;42920;45.306;20.448;2023-03-17T01:06:03;12.93;;;5.57;;
57029;SDS011;42920;45.306;20.448;2023-03-17T01:08:30;12.80;;;6.00;;
57029;SDS011;42920;45.306;20.448;2023-03-17T01:13:22;11.30;;;5.10;;
57029;SDS011;42920;45.306;20.448;2023-03-17T01:18:15;13.73;;;6.18;;
57029;SDS011;42920;45.306;20.448;2023-03-17T01:20:42;18.95;;;5.57;;
57029;SDS011;42920;45.306;20.448;2023-03-17T01:23:09;13.32;;;5.40;;
57029;SDS011;42920;45.306;20.448;2023-03-17T01:25:36;14.38;;;6.75;;
57029;SDS011;42920;45.306;20.448;2023-03-17T01:28:03;16.27;;;7.13;;
57029;SDS011;42920;45.306;20.448;2023-03-17T01:30:31;13.75;;;5.78;;
57029;SDS011;42920;45.306;20.448;2023-03-17T01:32:58;15.20;;;6.38;;
57029;SDS011;42920;45.306;20.448;2023-03-17T01:37:50;16.80;;;4.03;;
57029;SDS011;42920;45.306;20.448;2023-03-17T01:40:18;13.88;;;5.45;;
57029;SDS011;42920;45.306;20.448;2023-03-17T01:42:50;10.75;;;5.53;;
57029;SDS011;42920;45.306;20.448;2023-03-17T01:48:22;9.73;;;5.53;;
57029;SDS011;42920;45.306;20.448;2023-03-17T01:50:49;13.38;;;4.80;;
57029;SDS011;42920;45.306;20.448;2023-03-17T01:53:17;12.00;;;4.82;;
57029;SDS011;42920;45.306;20.448;2023-03-17T01:55:45;11.45;;;4.97;;
57029;SDS011;42920;45.306;20.448;2023-03-17T01:58:12;10.07;;;5.10;;
57029;SDS011;42920;45.306;20.448;2023-03-17T02:00:39;13.10;;;4.95;;
57029;SDS011;42920;45.306;20.448;2023-03-17T02:05:30;11.57;;;4.93;;
57029;SDS011;42920;45.306;20.448;2023-03-17T02:07:57;13.10;;;5.63;;
57029;SDS011;42920;45.306;20.448;2023-03-17T02:10:24;16.35;;;5.30;;
57029;SDS011;42920;45.306;20.448;2023-03-17T02:12:55;13.32;;;5.07;;
57029;SDS011;42920;45.306;20.448;2023-03-17T02:15:23;11.45;;;5.38;;
57029;SDS011;42920;45.306;20.448;2023-03-17T02:17:59;8.95;;;3.95;;
57029;SDS011;42920;45.306;20.448;2023-03-17T02:22:51;8.23;;;4.45;;
57029;SDS011;42920;45.306;20.448;2023-03-17T02:25:20;18.55;;;6.00;;
57029;SDS011;42920;45.306;20.448;2023-03-17T02:28:08;11.18;;;4.80;;
57029;SDS011;42920;45.306;20.448;2023-03-17T02:30:38;10.13;;;4.40;;
57029;SDS011;42920;45.306;20.448;2023-03-17T02:33:04;14.80;;;6.35;;
57029;SDS011;42920;45.306;20.448;2023-03-17T02:35:30;12.20;;;5.15;;
57029;SDS011;42920;45.306;20.448;2023-03-17T02:37:56;8.85;;;4.75;;
57029;SDS011;42920;45.306;20.448;2023-03-17T02:42:48;13.30;;;6.78;;
57029;SDS011;42920;45.306;20.448;2023-03-17T02:45:15;9.68;;;5.10;;
57029;SDS011;42920;45.306;20.448;2023-03-17T02:50:07;12.05;;;5.25;;
57029;SDS011;42920;45.306;20.448;2023-03-17T02:52:34;13.65;;;4.82;;
57029;SDS011;42920;45.306;20.448;2023-03-17T02:55:00;11.95;;;5.10;;
57029;SDS011;42920;45.306;20.448;2023-03-17T02:59:51;8.90;;;4.47;;
57029;SDS011;42920;45.306;20.448;2023-03-17T03:04:42;10.93;;;4.72;;
57029;SDS011;42920;45.306;20.448;2023-03-17T03:09:34;16.70;;;6.32;;
57029;SDS011;42920;45.306;20.448;2023-03-17T03:12:01;11.30;;;5.53;;
57029;SDS011;42920;45.306;20.448;2023-03-17T03:14:27;12.48;;;5.28;;
57029;SDS011;42920;45.306;20.448;2023-03-17T03:19:18;14.25;;;5.03;;
57029;SDS011;42920;45.306;20.448;2023-03-17T03:24:10;11.70;;;4.55;;
57029;SDS011;42920;45.306;20.448;2023-03-17T03:26:36;12.40;;;4.78;;
57029;SDS011;42920;45.306;20.448;2023-03-17T03:31:28;11.18;;;5.65;;
57029;SDS011;42920;45.306;20.448;2023-03-17T03:36:19;15.82;;;5.43;;
57029;SDS011;42920;45.306;20.448;2023-03-17T03:41:11;6.75;;;3.83;;
57029;SDS011;42920;45.306;20.448;2023-03-17T03:46:02;11.43;;;5.10;;
57029;SDS011;42920;45.306;20.448;2023-03-17T03:48:29;11.13;;;4.78;;
57029;SDS011;42920;45.306;20.448;2023-03-17T03:53:24;11.27;;;5.15;;
57029;SDS011;42920;45.306;20.448;2023-03-17T03:55:50;10.52;;;5.00;;
57029;SDS011;42920;45.306;20.448;2023-03-17T03:58:17;12.52;;;4.95;;
57029;SDS011;42920;45.306;20.448;2023-03-17T04:03:08;13.73;;;4.50;;
57029;SDS011;42920;45.306;20.448;2023-03-17T04:07:59;11.95;;;5.13;;
57029;SDS011;42920;45.306;20.448;2023-03-17T04:12:51;11.25;;;5.35;;
57029;SDS011;42920;45.306;20.448;2023-03-17T04:17:43;11.27;;;4.13;;
57029;SDS011;42920;45.306;20.448;2023-03-17T04:22:35;8.93;;;4.18;;
57029;SDS011;42920;45.306;20.448;2023-03-17T04:27:27;10.40;;;5.07;;
57029;SDS011;42920;45.306;20.448;2023-03-17T04:32:18;11.73;;;5.05;;
57029;SDS011;42920;45.306;20.448;2023-03-17T04:37:10;11.75;;;5.05;;
57029;SDS011;42920;45.306;20.448;2023-03-17T04:39:36;12.38;;;5.63;;
57029;SDS011;42920;45.306;20.448;2023-03-17T04:42:03;13.63;;;5.47;;
57029;SDS011;42920;45.306;20.448;2023-03-17T04:44:29;9.48;;;5.05;;
57029;SDS011;42920;45.306;20.448;2023-03-17T04:46:56;15.82;;;5.50;;
57029;SDS011;42920;45.306;20.448;2023-03-17T04:51:47;11.43;;;5.43;;
57029;SDS011;42920;45.306;20.448;2023-03-17T04:56:38;12.80;;;5.45;;
57029;SDS011;42920;45.306;20.448;2023-03-17T05:01:30;12.68;;;5.07;;
57029;SDS011;42920;45.306;20.448;2023-03-17T05:06:21;11.23;;;4.57;;
57029;SDS011;42920;45.306;20.448;2023-03-17T05:11:13;14.07;;;5.80;;
57029;SDS011;42920;45.306;20.448;2023-03-17T05:13:39;13.07;;;6.03;;
57029;SDS011;42920;45.306;20.448;2023-03-17T05:18:31;13.37;;;5.67;;
57029;SDS011;42920;45.306;20.448;2023-03-17T05:20:57;16.70;;;6.45;;
57029;SDS011;42920;45.306;20.448;2023-03-17T05:25:50;19.42;;;7.88;;
57029;SDS011;42920;45.306;20.448;2023-03-17T05:28:17;20.25;;;8.95;;
57029;SDS011;42920;45.306;20.448;2023-03-17T05:30:44;25.33;;;9.85;;
57029;SDS011;42920;45.306;20.448;2023-03-17T05:33:12;19.55;;;8.80;;
57029;SDS011;42920;45.306;20.448;2023-03-17T05:35:38;21.25;;;9.32;;
57029;SDS011;42920;45.306;20.448;2023-03-17T05:40:31;16.30;;;6.93;;
57029;SDS011;42920;45.306;20.448;2023-03-17T05:45:22;29.38;;;12.35;;
57029;SDS011;42920;45.306;20.448;2023-03-17T05:50:13;45.33;;;18.48;;
57029;SDS011;42920;45.306;20.448;2023-03-17T05:55:05;22.63;;;9.93;;
57029;SDS011;42920;45.306;20.448;2023-03-17T05:57:32;19.10;;;8.02;;
57029;SDS011;42920;45.306;20.448;2023-03-17T05:59:58;38.80;;;18.95;;
57029;SDS011;42920;45.306;20.448;2023-03-17T06:04:49;16.27;;;8.73;;
57029;SDS011;42920;45.306;20.448;2023-03-17T06:07:16;20.67;;;9.02;;
57029;SDS011;42920;45.306;20.448;2023-03-17T06:12:07;18.42;;;8.60;;
57029;SDS011;42920;45.306;20.448;2023-03-17T06:14:33;21.42;;;8.32;;
57029;SDS011;42920;45.306;20.448;2023-03-17T06:19:25;29.95;;;10.13;;
57029;SDS011;42920;45.306;20.448;2023-03-17T06:24:16;18.30;;;8.63;;
57029;SDS011;42920;45.306;20.448;2023-03-17T06:29:08;22.95;;;6.93;;
57029;SDS011;42920;45.306;20.448;2023-03-17T06:34:02;13.65;;;7.13;;
57029;SDS011;42920;45.306;20.448;2023-03-17T06:38:54;19.52;;;6.47;;
57029;SDS011;42920;45.306;20.448;2023-03-17T06:43:45;18.90;;;8.02;;
57029;SDS011;42920;45.306;20.448;2023-03-17T06:48:37;16.33;;;6.88;;
57029;SDS011;42920;45.306;20.448;2023-03-17T06:53:29;13.52;;;6.30;;
57029;SDS011;42920;45.306;20.448;2023-03-17T06:55:55;18.45;;;7.28;;
57029;SDS011;42920;45.306;20.448;2023-03-17T06:58:21;14.57;;;7.25;;
57029;SDS011;42920;45.306;20.448;2023-03-17T07:00:47;15.27;;;7.22;;
57029;SDS011;42920;45.306;20.448;2023-03-17T07:03:17;14.45;;;7.38;;
57029;SDS011;42920;45.306;20.448;2023-03-17T07:05:44;14.55;;;7.05;;
57029;SDS011;42920;45.306;20.448;2023-03-17T07:08:10;17.67;;;7.25;;
57029;SDS011;42920;45.306;20.448;2023-03-17T07:13:03;12.77;;;6.85;;
57029;SDS011;42920;45.306;20.448;2023-03-17T07:15:31;11.07;;;5.70;;
57029;SDS011;42920;45.306;20.448;2023-03-17T07:17:59;13.98;;;7.18;;
57029;SDS011;42920;45.306;20.448;2023-03-17T07:22:50;16.13;;;7.70;;
57029;SDS011;42920;45.306;20.448;2023-03-17T07:27:41;11.48;;;6.43;;
57029;SDS011;42920;45.306;20.448;2023-03-17T07:32:33;15.43;;;7.38;;
57029;SDS011;42920;45.306;20.448;2023-03-17T07:35:00;21.25;;;7.80;;
57029;SDS011;42920;45.306;20.448;2023-03-17T07:39:51;11.75;;;6.65;;
57029;SDS011;42920;45.306;20.448;2023-03-17T07:44:42;16.05;;;6.82;;
57029;SDS011;42920;45.306;20.448;2023-03-17T07:47:11;15.13;;;7.45;;
57029;SDS011;42920;45.306;20.448;2023-03-17T07:49:38;19.05;;;7.78;;
57029;SDS011;42920;45.306;20.448;2023-03-17T07:54:30;17.37;;;7.47;;
57029;SDS011;42920;45.306;20.448;2023-03-17T07:59:22;20.02;;;9.52;;
57029;SDS011;42920;45.306;20.448;2023-03-17T08:04:13;23.17;;;9.30;;
57029;SDS011;42920;45.306;20.448;2023-03-17T08:06:39;14.38;;;7.75;;
57029;SDS011;42920;45.306;20.448;2023-03-17T08:09:06;12.32;;;5.97;;
57029;SDS011;42920;45.306;20.448;2023-03-17T08:11:35;13.88;;;8.30;;
57029;SDS011;42920;45.306;20.448;2023-03-17T08:14:01;14.38;;;8.68;;
57029;SDS011;42920;45.306;20.448;2023-03-17T08:16:28;17.08;;;7.68;;
57029;SDS011;42920;45.306;20.448;2023-03-17T08:18:54;15.18;;;7.03;;
57029;SDS011;42920;45.306;20.448;2023-03-17T08:21:22;11.70;;;6.25;;
57029;SDS011;42920;45.306;20.448;2023-03-17T08:23:54;14.88;;;7.15;;
57029;SDS011;42920;45.306;20.448;2023-03-17T08:26:21;13.13;;;6.88;;
57029;SDS011;42920;45.306;20.448;2023-03-17T08:28:47;14.85;;;7.28;;
57029;SDS011;42920;45.306;20.448;2023-03-17T08:31:15;19.75;;;8.13;;
57029;SDS011;42920;45.306;20.448;2023-03-17T08:33:45;13.50;;;6.40;;
57029;SDS011;42920;45.306;20.448;2023-03-17T08:36:12;14.30;;;6.20;;
57029;SDS011;42920;45.306;20.448;2023-03-17T08:38:40;14.32;;;7.00;;
57029;SDS011;42920;45.306;20.448;2023-03-17T08:41:07;13.15;;;5.93;;
57029;SDS011;42920;45.306;20.448;2023-03-17T08:43:36;13.52;;;6.75;;
57029;SDS011;42920;45.306;20.448;2023-03-17T08:48:54;16.05;;;7.57;;
57029;SDS011;42920;45.306;20.448;2023-03-17T08:51:21;18.23;;;9.88;;
57029;SDS011;42920;45.306;20.448;2023-03-17T08:53:49;18.33;;;9.15;;
57029;SDS011;42920;45.306;20.448;2023-03-17T08:56:16;16.40;;;7.57;;
57029;SDS011;42920;45.306;20.448;2023-03-17T09:01:08;15.52;;;7.50;;
57029;SDS011;42920;45.306;20.448;2023-03-17T09:03:35;12.60;;;7.22;;
57029;SDS011;42920;45.306;20.448;2023-03-17T09:06:02;22.08;;;9.38;;
57029;SDS011;42920;45.306;20.448;2023-03-17T09:08:30;13.05;;;7.03;;
57029;SDS011;42920;45.306;20.448;2023-03-17T09:10:57;22.00;;;8.32;;
57029;SDS011;42920;45.306;20.448;2023-03-17T09:15:48;16.73;;;6.72;;
57029;SDS011;42920;45.306;20.448;2023-03-17T09:20:40;12.95;;;6.82;;
57029;SDS011;42920;45.306;20.448;2023-03-17T09:25:36;9.27;;;5.53;;
57029;SDS011;42920;45.306;20.448;2023-03-17T09:28:03;17.27;;;6.63;;
57029;SDS011;42920;45.306;20.448;2023-03-17T09:30:31;16.65;;;7.75;;
57029;SDS011;42920;45.306;20.448;2023-03-17T09:32:57;16.08;;;5.97;;
57029;SDS011;42920;45.306;20.448;2023-03-17T09:35:23;14.90;;;6.35;;
57029;SDS011;42920;45.306;20.448;2023-03-17T09:37:51;15.48;;;6.53;;
57029;SDS011;42920;45.306;20.448;2023-03-17T09:40:18;11.60;;;5.93;;
57029;SDS011;42920;45.306;20.448;2023-03-17T09:42:49;12.32;;;6.38;;
57029;SDS011;42920;45.306;20.448;2023-03-17T09:45:19;13.32;;;6.63;;
57029;SDS011;42920;45.306;20.448;2023-03-17T09:51:16;21.55;;;8.35;;
57029;SDS011;42920;45.306;20.448;2023-03-17T09:53:48;13.65;;;6.80;;
57029;SDS011;42920;45.306;20.448;2023-03-17T09:56:20;11.05;;;6.10;;
57029;SDS011;42920;45.306;20.448;2023-03-17T09:58:51;12.52;;;6.00;;
57029;SDS011;42920;45.306;20.448;2023-03-17T10:01:29;15.02;;;5.93;;
57029;SDS011;42920;45.306;20.448;2023-03-17T10:03:56;12.95;;;5.68;;
57029;SDS011;42920;45.306;20.448;2023-03-17T10:06:36;11.30;;;5.10;;
57029;SDS011;42920;45.306;20.448;2023-03-17T10:12:01;17.77;;;6.68;;
57029;SDS011;42920;45.306;20.448;2023-03-17T10:17:11;10.88;;;4.32;;
57029;SDS011;42920;45.306;20.448;2023-03-17T10:19:41;8.02;;;4.72;;
57029;SDS011;42920;45.306;20.448;2023-03-17T10:22:29;8.98;;;4.22;;
57029;SDS011;42920;45.306;20.448;2023-03-17T10:24:59;10.07;;;4.78;;
57029;SDS011;42920;45.306;20.448;2023-03-17T10:27:29;8.80;;;4.25;;
57029;SDS011;42920;45.306;20.448;2023-03-17T10:29:58;7.20;;;4.50;;
57029;SDS011;42920;45.306;20.448;2023-03-17T10:32:24;8.02;;;4.18;;
57029;SDS011;42920;45.306;20.448;2023-03-17T10:34:51;7.82;;;2.58;;
57029;SDS011;42920;45.306;20.448;2023-03-17T10:37:19;8.70;;;3.88;;
57029;SDS011;42920;45.306;20.448;2023-03-17T10:39:48;8.43;;;4.47;;
57029;SDS011;42920;45.306;20.448;2023-03-17T10:47:38;6.43;;;3.60;;
57029;SDS011;42920;45.306;20.448;2023-03-17T10:52:43;7.88;;;4.88;;
57029;SDS011;42920;45.306;20.448;2023-03-17T10:55:13;14.02;;;6.30;;
57029;SDS011;42920;45.306;20.448;2023-03-17T10:57:51;12.50;;;6.72;;
57029;SDS011;42920;45.306;20.448;2023-03-17T11:00:25;11.73;;;5.18;;
57029;SDS011;42920;45.306;20.448;2023-03-17T11:02:57;14.90;;;6.90;;
57029;SDS011;42920;45.306;20.448;2023-03-17T11:05:24;6.38;;;3.40;;
57029;SDS011;42920;45.306;20.448;2023-03-17T11:08:09;9.73;;;3.78;;
57029;SDS011;42920;45.306;20.448;2023-03-17T11:10:42;9.60;;;4.18;;
57029;SDS011;42920;45.306;20.448;2023-03-17T11:13:08;6.45;;;3.80;;
57029;SDS011;42920;45.306;20.448;2023-03-17T11:15:40;8.55;;;4.57;;
57029;SDS011;42920;45.306;20.448;2023-03-17T11:18:26;10.63;;;4.50;;
57029;SDS011;42920;45.306;20.448;2023-03-17T11:31:33;13.43;;;4.82;;
57029;SDS011;42920;45.306;20.448;2023-03-17T11:34:28;10.27;;;3.45;;
57029;SDS011;42920;45.306;20.448;2023-03-17T11:37:03;7.93;;;3.95;;
57029;SDS011;42920;45.306;20.448;2023-03-17T11:39:56;6.53;;;3.20;;
57029;SDS011;42920;45.306;20.448;2023-03-17T11:56:13;7.82;;;3.20;;
57029;SDS011;42920;45.306;20.448;2023-03-17T11:58:45;9.95;;;5.60;;
57029;SDS011;42920;45.306;20.448;2023-03-17T12:01:18;10.25;;;5.03;;
57029;SDS011;42920;45.306;20.448;2023-03-17T12:11:26;7.28;;;3.80;;
57029;SDS011;42920;45.306;20.448;2023-03-17T12:13:55;9.10;;;4.50;;
57029;SDS011;42920;45.306;20.448;2023-03-17T12:16:42;12.50;;;4.32;;
57029;SDS011;42920;45.306;20.448;2023-03-17T12:19:23;6.63;;;3.25;;
57029;SDS011;42920;45.306;20.448;2023-03-17T12:27:30;9.23;;;4.05;;
57029;SDS011;42920;45.306;20.448;2023-03-17T12:30:02;7.70;;;4.20;;
57029;SDS011;42920;45.306;20.448;2023-03-17T12:37:54;8.05;;;3.13;;
57029;SDS011;42920;45.306;20.448;2023-03-17T12:40:23;11.52;;;4.57;;
57029;SDS011;42920;45.306;20.448;2023-03-17T12:48:17;5.28;;;3.03;;
57029;SDS011;42920;45.306;20.448;2023-03-17T12:51:22;6.88;;;3.35;;
57029;SDS011;42920;45.306;20.448;2023-03-17T12:54:12;7.13;;;3.42;;
57029;SDS011;42920;45.306;20.448;2023-03-17T12:56:43;7.50;;;4.32;;
57029;SDS011;42920;45.306;20.448;2023-03-17T12:59:20;8.02;;;4.18;;
57029;SDS011;42920;45.306;20.448;2023-03-17T13:01:53;9.57;;;4.05;;
57029;SDS011;42920;45.306;20.448;2023-03-17T13:04:28;8.13;;;3.67;;
57029;SDS011;42920;45.306;20.448;2023-03-17T13:07:08;6.72;;;3.10;;
57029;SDS011;42920;45.306;20.448;2023-03-17T13:09:49;13.52;;;5.57;;
57029;SDS011;42920;45.306;20.448;2023-03-17T13:17:51;7.28;;;2.95;;
57029;SDS011;42920;45.306;20.448;2023-03-17T13:21:22;10.13;;;4.30;;
57029;SDS011;42920;45.306;20.448;2023-03-17T13:23:41;7.32;;;3.13;;
57029;SDS011;42920;45.306;20.448;2023-03-17T13:26:10;5.43;;;3.10;;
57029;SDS011;42920;45.306;20.448;2023-03-17T13:37:02;9.57;;;4.68;;
57029;SDS011;42920;45.306;20.448;2023-03-17T13:45:19;8.20;;;3.88;;
57029;SDS011;42920;45.306;20.448;2023-03-17T13:48:20;9.20;;;3.90;;
57029;SDS011;42920;45.306;20.448;2023-03-17T13:51:24;8.35;;;3.63;;
57029;SDS011;42920;45.306;20.448;2023-03-17T13:59:10;8.77;;;3.20;;
57029;SDS011;42920;45.306;20.448;2023-03-17T14:01:55;8.38;;;2.70;;
57029;SDS011;42920;45.306;20.448;2023-03-17T14:04:26;8.15;;;2.70;;
57029;SDS011;42920;45.306;20.448;2023-03-17T14:06:56;6.93;;;3.70;;
57029;SDS011;42920;45.306;20.448;2023-03-17T14:09:32;8.82;;;3.78;;
57029;SDS011;42920;45.306;20.448;2023-03-17T14:12:16;11.35;;;4.00;;
57029;SDS011;42920;45.306;20.448;2023-03-17T14:14:52;6.63;;;3.40;;
57029;SDS011;42920;45.306;20.448;2023-03-17T14:17:45;9.00;;;3.53;;
57029;SDS011;42920;45.306;20.448;2023-03-17T14:22:41;4.97;;;3.20;;
57029;SDS011;42920;45.306;20.448;2023-03-17T14:25:13;10.02;;;3.88;;
57029;SDS011;42920;45.306;20.448;2023-03-17T14:27:44;7.18;;;2.97;;
57029;SDS011;42920;45.306;20.448;2023-03-17T14:30:16;8.10;;;3.65;;
57029;SDS011;42920;45.306;20.448;2023-03-17T14:32:45;7.03;;;3.42;;
57029;SDS011;42920;45.306;20.448;2023-03-17T14:35:16;5.70;;;3.25;;
57029;SDS011;42920;45.306;20.448;2023-03-17T14:37:42;4.38;;;2.92;;
57029;SDS011;42920;45.306;20.448;2023-03-17T14:40:22;8.57;;;3.17;;
57029;SDS011;42920;45.306;20.448;2023-03-17T14:42:49;5.72;;;3.10;;
57029;SDS011;42920;45.306;20.448;2023-03-17T14:46:01;7.85;;;2.90;;
57029;SDS011;42920;45.306;20.448;2023-03-17T14:48:15;7.68;;;3.30;;
57029;SDS011;42920;45.306;20.448;2023-03-17T14:50:56;6.55;;;3.30;;
57029;SDS011;42920;45.306;20.448;2023-03-17T14:53:29;8.18;;;3.33;;
57029;SDS011;42920;45.306;20.448;2023-03-17T14:55:56;6.95;;;3.45;;
57029;SDS011;42920;45.306;20.448;2023-03-17T14:58:24;7.88;;;4.45;;
57029;SDS011;42920;45.306;20.448;2023-03-17T15:01:02;7.55;;;3.95;;
57029;SDS011;42920;45.306;20.448;2023-03-17T15:03:37;7.50;;;4.68;;
57029;SDS011;42920;45.306;20.448;2023-03-17T15:06:24;6.90;;;2.92;;
57029;SDS011;42920;45.306;20.448;2023-03-17T15:08:51;10.80;;;3.10;;
57029;SDS011;42920;45.306;20.448;2023-03-17T15:13:45;5.22;;;2.97;;
57029;SDS011;42920;45.306;20.448;2023-03-17T15:16:16;7.63;;;3.83;;
57029;SDS011;42920;45.306;20.448;2023-03-17T15:18:52;8.50;;;3.05;;
57029;SDS011;42920;45.306;20.448;2023-03-17T15:21:40;5.05;;;2.83;;
57029;SDS011;42920;45.306;20.448;2023-03-17T15:24:27;5.60;;;3.35;;
57029;SDS011;42920;45.306;20.448;2023-03-17T15:29:29;4.97;;;2.80;;
57029;SDS011;42920;45.306;20.448;2023-03-17T15:32:14;4.88;;;2.75;;
57029;SDS011;42920;45.306;20.448;2023-03-17T15:34:41;6.43;;;2.75;;
57029;SDS011;42920;45.306;20.448;2023-03-17T15:37:12;7.10;;;3.17;;
57029;SDS011;42920;45.306;20.448;2023-03-17T15:39:43;6.57;;;3.55;;
57029;SDS011;42920;45.306;20.448;2023-03-17T15:42:09;5.95;;;3.90;;
57029;SDS011;42920;45.306;20.448;2023-03-17T15:44:35;15.63;;;4.05;;
57029;SDS011;42920;45.306;20.448;2023-03-17T15:47:01;9.32;;;3.13;;
57029;SDS011;42920;45.306;20.448;2023-03-17T15:49:27;8.68;;;4.45;;
57029;SDS011;42920;45.306;20.448;2023-03-17T15:51:54;8.07;;;3.80;;
57029;SDS011;42920;45.306;20.448;2023-03-17T15:54:19;11.60;;;3.85;;
57029;SDS011;42920;45.306;20.448;2023-03-17T15:56:45;11.68;;;4.78;;
57029;SDS011;42920;45.306;20.448;2023-03-17T15:59:11;13.32;;;4.53;;
57029;SDS011;42920;45.306;20.448;2023-03-17T16:01:37;9.18;;;4.20;;
57029;SDS011;42920;45.306;20.448;2023-03-17T16:04:06;9.05;;;3.70;;
57029;SDS011;42920;45.306;20.448;2023-03-17T16:06:33;18.73;;;10.25;;
57029;SDS011;42920;45.306;20.448;2023-03-17T16:08:59;14.82;;;6.85;;
57029;SDS011;42920;45.306;20.448;2023-03-17T16:11:25;11.52;;;5.15;;
57029;SDS011;42920;45.306;20.448;2023-03-17T16:13:55;9.18;;;4.32;;
57029;SDS011;42920;45.306;20.448;2023-03-17T16:16:34;9.32;;;3.95;;
57029;SDS011;42920;45.306;20.448;2023-03-17T16:19:03;10.63;;;5.40;;
57029;SDS011;42920;45.306;20.448;2023-03-17T16:21:30;15.05;;;5.75;;
57029;SDS011;42920;45.306;20.448;2023-03-17T16:23:56;12.32;;;7.15;;
57029;SDS011;42920;45.306;20.448;2023-03-17T16:26:22;9.70;;;4.38;;
57029;SDS011;42920;45.306;20.448;2023-03-17T16:28:48;10.93;;;5.80;;
57029;SDS011;42920;45.306;20.448;2023-03-17T16:31:21;13.57;;;5.80;;
57029;SDS011;42920;45.306;20.448;2023-03-17T16:33:50;22.00;;;7.78;;
57029;SDS011;42920;45.306;20.448;2023-03-17T16:36:17;24.70;;;9.18;;
57029;SDS011;42920;45.306;20.448;2023-03-17T16:38:44;17.67;;;7.63;;
57029;SDS011;42920;45.306;20.448;2023-03-17T16:41:18;29.77;;;8.48;;
57029;SDS011;42920;45.306;20.448;2023-03-17T16:43:57;23.98;;;10.10;;
57029;SDS011;42920;45.306;20.448;2023-03-17T16:46:25;26.73;;;10.43;;
57029;SDS011;42920;45.306;20.448;2023-03-17T16:48:55;19.63;;;8.77;;
57029;SDS011;42920;45.306;20.448;2023-03-17T16:51:20;11.55;;;6.20;;
57029;SDS011;42920;45.306;20.448;2023-03-17T16:53:46;13.50;;;7.72;;
57029;SDS011;42920;45.306;20.448;2023-03-17T16:56:14;21.23;;;9.73;;
57029;SDS011;42920;45.306;20.448;2023-03-17T16:58:41;15.57;;;8.70;;
57029;SDS011;42920;45.306;20.448;2023-03-17T17:01:10;12.13;;;7.30;;
57029;SDS011;42920;45.306;20.448;2023-03-17T17:03:38;12.90;;;6.28;;
57029;SDS011;42920;45.306;20.448;2023-03-17T17:06:04;13.27;;;5.50;;
57029;SDS011;42920;45.306;20.448;2023-03-17T17:08:31;12.82;;;5.35;;
57029;SDS011;42920;45.306;20.448;2023-03-17T17:10:56;21.80;;;9.27;;
57029;SDS011;42920;45.306;20.448;2023-03-17T17:13:22;16.60;;;8.48;;
57029;SDS011;42920;45.306;20.448;2023-03-17T17:15:48;26.45;;;13.77;;
57029;SDS011;42920;45.306;20.448;2023-03-17T17:18:17;14.88;;;8.75;;
57029;SDS011;42920;45.306;20.448;2023-03-17T17:20:45;25.73;;;12.23;;
57029;SDS011;42920;45.306;20.448;2023-03-17T17:23:23;34.63;;;15.73;;
57029;SDS011;42920;45.306;20.448;2023-03-17T17:25:50;38.80;;;21.17;;
57029;SDS011;42920;45.306;20.448;2023-03-17T17:28:17;34.15;;;17.55;;
57029;SDS011;42920;45.306;20.448;2023-03-17T17:30:46;21.02;;;11.20;;
57029;SDS011;42920;45.306;20.448;2023-03-17T17:33:14;26.20;;;11.80;;
57029;SDS011;42920;45.306;20.448;2023-03-17T17:35:41;18.15;;;10.57;;
57029;SDS011;42920;45.306;20.448;2023-03-17T17:38:16;23.35;;;10.52;;
57029;SDS011;42920;45.306;20.448;2023-03-17T17:40:42;17.08;;;9.32;;
57029;SDS011;42920;45.306;20.448;2023-03-17T17:43:08;18.08;;;9.32;;
57029;SDS011;42920;45.306;20.448;2023-03-17T17:45:34;19.50;;;10.02;;
57029;SDS011;42920;45.306;20.448;2023-03-17T17:48:00;22.25;;;10.38;;
57029;SDS011;42920;45.306;20.448;2023-03-17T17:50:27;19.50;;;10.60;;
57029;SDS011;42920;45.306;20.448;2023-03-17T17:52:53;23.88;;;11.35;;
57029;SDS011;42920;45.306;20.448;2023-03-17T17:55:25;20.55;;;10.82;;
57029;SDS011;42920;45.306;20.448;2023-03-17T17:57:51;25.20;;;10.63;;
57029;SDS011;42920;45.306;20.448;2023-03-17T18:02:43;23.05;;;10.30;;
57029;SDS011;42920;45.306;20.448;2023-03-17T18:05:09;21.80;;;12.00;;
57029;SDS011;42920;45.306;20.448;2023-03-17T18:07:36;24.50;;;11.23;;
57029;SDS011;42920;45.306;20.448;2023-03-17T18:10:02;30.33;;;12.25;;
57029;SDS011;42920;45.306;20.448;2023-03-17T18:12:29;25.60;;;14.15;;
57029;SDS011;42920;45.306;20.448;2023-03-17T18:14:55;26.92;;;13.00;;
57029;SDS011;42920;45.306;20.448;2023-03-17T18:19:49;38.42;;;20.60;;
57029;SDS011;42920;45.306;20.448;2023-03-17T18:22:17;39.33;;;20.35;;
57029;SDS011;42920;45.306;20.448;2023-03-17T18:24:43;41.70;;;19.65;;
57029;SDS011;42920;45.306;20.448;2023-03-17T18:27:09;35.45;;;17.88;;
57029;SDS011;42920;45.306;20.448;2023-03-17T18:29:35;35.63;;;17.08;;
57029;SDS011;42920;45.306;20.448;2023-03-17T18:32:01;39.25;;;19.88;;
57029;SDS011;42920;45.306;20.448;2023-03-17T18:34:29;48.10;;;22.08;;
57029;SDS011;42920;45.306;20.448;2023-03-17T18:36:59;53.08;;;27.70;;
57029;SDS011;42920;45.306;20.448;2023-03-17T18:39:26;54.90;;;25.83;;
57029;SDS011;42920;45.306;20.448;2023-03-17T18:41:52;62.10;;;29.42;;
57029;SDS011;42920;45.306;20.448;2023-03-17T18:44:18;92.95;;;43.10;;
57029;SDS011;42920;45.306;20.448;2023-03-17T18:46:46;85.22;;;35.40;;
57029;SDS011;42920;45.306;20.448;2023-03-17T18:49:11;84.70;;;37.88;;
57029;SDS011;42920;45.306;20.448;2023-03-17T18:54:03;73.07;;;33.40;;
57029;SDS011;42920;45.306;20.448;2023-03-17T18:56:29;116.35;;;52.40;;
57029;SDS011;42920;45.306;20.448;2023-03-17T18:58:56;286.42;;;128.60;;
57029;SDS011;42920;45.306;20.448;2023-03-17T19:01:22;151.15;;;71.78;;
57029;SDS011;42920;45.306;20.448;2023-03-17T19:03:48;102.88;;;52.38;;
57029;SDS011;42920;45.306;20.448;2023-03-17T19:06:16;82.05;;;42.53;;
57029;SDS011;42920;45.306;20.448;2023-03-17T19:08:44;70.15;;;34.65;;